EmailTwitter


Observations de surface / France / LFMP (07747)

Régions: Québec | Canada | États-Unis | Europe | France | UK | Ailleurs
Station
Affichage
Infos & localisation pour LFMP (07747) | Aide pour décoder les METARs

Observations prises le 2019-02-20 à 12H00 UTC à PERPIGNAN/RIVESA, FR (LFMP)

Etat du ciel: ciel variable.

Température: 14.0 Celsius

Point de rosée: 7.0 Celsius

Humidité relative: 63%

Vents: Est à 7 km/h ou 4 noeuds.

Pression au niveau moyen de la mer: 102.50 kilopascals.

Visibilité horizontale: 6.21 milles terrestres ou 9.94 kilomètres.

Observation METAR:

LFMP 201200Z AUTO 10004KT 050V170 9999 SCT031 14/07 Q1025 NOSIG=